PWSweather.com
Personal Weather Stations
Station Observations
KAZCOTTO1
Verde Villege Unit # 6, Cottonwood, AZ 86326

Verde Villege Unit # 6Cottonwood, AZ 86326

Lat: 34.7, Lon: -112.01

Elevation: 3500

Station Type:

http://users.commspeed.net/stuartpratt/

High Low Average
Temperature 84.9°F29.4°C 49.7°F9.8°C 67.9°F19.9°C
Dew Point 37.7°F3.2°C 29.3°F-1.5°C 33.8°F1.0°C
Winds 13.4 mph 21.6 kmh Calm Calm 2.0 mph SW3.2 kmh SW
Wind Gusts 17.4 mph28.0 kmh -- 4.0 mph6.4 kmh
Humidity 55% 13% 32%
Pressure 30.05 in1017.6 mb 29.97 in1014.9 mb -
Precipitation 0.00 in0.0 mm - -
Hour Temp Dew Point Humidity Winds Wind Gusts Pressure Precip Precip Rate Daily Precip Total
12:02 AM 59.9°F15.5°C 33.9°F1.1°C 37% Calm Calm -- 30.01 in1016.3 mb 0.00 in0.0 mm 0.00 in/hr0.0 mm/hr 0.00 in0.0 mm
12:32 AM 58.3°F14.6°C 34.0°F1.1°C 40% Calm Calm -- 30.01 in1016.3 mb 0.00 in0.0 mm 0.00 in/hr0.0 mm/hr 0.00 in0.0 mm
01:02 AM 58.5°F14.7°C 33.7°F0.9°C 39% Calm Calm -- 30.01 in1016.3 mb 0.00 in0.0 mm 0.00 in/hr0.0 mm/hr 0.00 in0.0 mm
01:31 AM 58.1°F14.5°C 33.9°F1.1°C 40% Calm Calm -- 30.00 in1015.9 mb 0.00 in0.0 mm 0.00 in/hr0.0 mm/hr 0.00 in0.0 mm
02:03 AM 55.7°F13.2°C 34.0°F1.1°C 44% Calm Calm -- 30.00 in1015.9 mb 0.00 in0.0 mm 0.00 in/hr0.0 mm/hr 0.00 in0.0 mm
02:32 AM 55.0°F12.8°C 33.7°F0.9°C 44% Calm Calm -- 30.00 in1015.9 mb 0.00 in0.0 mm 0.00 in/hr0.0 mm/hr 0.00 in0.0 mm
03:02 AM 53.6°F12.0°C 33.5°F0.8°C 46% Calm Calm -- 30.00 in1015.9 mb 0.00 in0.0 mm 0.00 in/hr0.0 mm/hr 0.00 in0.0 mm
03:32 AM 53.2°F11.8°C 33.9°F1.1°C 48% Calm Calm -- 30.00 in1015.9 mb 0.00 in0.0 mm 0.00 in/hr0.0 mm/hr 0.00 in0.0 mm
04:02 AM 52.0°F11.1°C 33.9°F1.1°C 50% Calm Calm -- 30.00 in1015.9 mb 0.00 in0.0 mm 0.00 in/hr0.0 mm/hr 0.00 in0.0 mm
04:32 AM 51.7°F10.9°C 34.0°F1.1°C 51% Calm Calm -- 30.01 in1016.3 mb 0.00 in0.0 mm 0.00 in/hr0.0 mm/hr 0.00 in0.0 mm
05:02 AM 52.3°F11.3°C 34.1°F1.2°C 50% Calm Calm -- 30.01 in1016.3 mb 0.00 in0.0 mm 0.00 in/hr0.0 mm/hr 0.00 in0.0 mm
05:32 AM 52.1°F11.2°C 34.4°F1.3°C 51% Calm Calm -- 30.01 in1016.3 mb 0.00 in0.0 mm 0.00 in/hr0.0 mm/hr 0.00 in0.0 mm
06:02 AM 49.7°F9.8°C 34.1°F1.2°C 55% Calm Calm -- 30.02 in1016.6 mb 0.00 in0.0 mm 0.00 in/hr0.0 mm/hr 0.00 in0.0 mm
06:32 AM 52.8°F11.6°C 35.0°F1.7°C 51% Calm Calm -- 30.04 in1017.3 mb 0.00 in0.0 mm 0.00 in/hr0.0 mm/hr 0.00 in0.0 mm
07:02 AM 56.9°F13.8°C 36.1°F2.3°C 46% Calm Calm -- 30.04 in1017.3 mb 0.00 in0.0 mm 0.00 in/hr0.0 mm/hr 0.00 in0.0 mm
07:31 AM 60.4°F15.8°C 37.7°F3.2°C 43% Calm Calm -- 30.05 in1017.6 mb 0.00 in0.0 mm 0.00 in/hr0.0 mm/hr 0.00 in0.0 mm
08:02 AM 63.0°F17.2°C 37.7°F3.2°C 39% Calm Calm -- 30.05 in1017.6 mb 0.00 in0.0 mm 0.00 in/hr0.0 mm/hr 0.00 in0.0 mm
08:32 AM 66.9°F19.4°C 37.6°F3.1°C 34% Calm Calm -- 30.05 in1017.6 mb 0.00 in0.0 mm 0.00 in/hr0.0 mm/hr 0.00 in0.0 mm
09:02 AM 70.0°F21.1°C 37.4°F3.0°C 30% Calm Calm -- 30.05 in1017.6 mb 0.00 in0.0 mm 0.00 in/hr0.0 mm/hr 0.00 in0.0 mm
09:32 AM 72.1°F22.3°C 36.8°F2.7°C 28% Calm Calm -- 30.05 in1017.6 mb 0.00 in0.0 mm 0.00 in/hr0.0 mm/hr 0.00 in0.0 mm
10:02 AM 75.0°F23.9°C 36.7°F2.6°C 25% Calm Calm -- 30.04 in1017.3 mb 0.00 in0.0 mm 0.00 in/hr0.0 mm/hr 0.00 in0.0 mm
10:32 AM 77.4°F25.2°C 35.5°F1.9°C 22% Calm Calm -- 30.04 in1017.3 mb 0.00 in0.0 mm 0.00 in/hr0.0 mm/hr 0.00 in0.0 mm
11:02 AM 80.0°F26.7°C 34.9°F1.6°C 20% Calm Calm 6.8 mph10.9 kmh 30.03 in1016.9 mb 0.00 in0.0 mm 0.00 in/hr0.0 mm/hr 0.00 in0.0 mm
11:32 AM 82.4°F28.0°C 33.1°F0.6°C 17% 3.3 mph SE5.3 kmh SE 13.9 mph22.4 kmh 30.02 in1016.6 mb 0.00 in0.0 mm 0.00 in/hr0.0 mm/hr 0.00 in0.0 mm
12:03 PM 82.9°F28.3°C 33.1°F0.6°C 17% 7.3 mph SSW11.7 kmh SSW 10.5 mph16.9 kmh 30.02 in1016.6 mb 0.00 in0.0 mm 0.00 in/hr0.0 mm/hr 0.00 in0.0 mm
12:32 PM 83.6°F28.7°C 32.2°F0.1°C 16% 13.4 mph S21.6 kmh S 17.4 mph28.0 kmh 30.01 in1016.3 mb 0.00 in0.0 mm 0.00 in/hr0.0 mm/hr 0.00 in0.0 mm
01:02 PM 84.0°F28.9°C 31.3°F-0.4°C 15% 9.4 mph S15.1 kmh S 15.3 mph24.6 kmh 30.01 in1016.3 mb 0.00 in0.0 mm 0.00 in/hr0.0 mm/hr 0.00 in0.0 mm
01:32 PM 84.6°F29.2°C 30.2°F-1.0°C 14% 10.6 mph SW17.1 kmh SW 12.5 mph20.1 kmh 30.01 in1016.3 mb 0.00 in0.0 mm 0.00 in/hr0.0 mm/hr 0.00 in0.0 mm
02:02 PM 84.4°F29.1°C 30.1°F-1.1°C 14% 5.2 mph S8.4 kmh S 9.2 mph14.8 kmh 30.00 in1015.9 mb 0.00 in0.0 mm 0.00 in/hr0.0 mm/hr 0.00 in0.0 mm
02:32 PM 84.6°F29.2°C 30.2°F-1.0°C 14% 4.2 mph SW6.8 kmh SW 11.3 mph18.2 kmh 30.00 in1015.9 mb 0.00 in0.0 mm 0.00 in/hr0.0 mm/hr 0.00 in0.0 mm
03:02 PM 84.8°F29.3°C 31.4°F-0.3°C 15% 3.2 mph S5.1 kmh S 15.0 mph24.1 kmh 29.99 in1015.6 mb 0.00 in0.0 mm 0.00 in/hr0.0 mm/hr 0.00 in0.0 mm
03:32 PM 84.6°F29.2°C 31.7°F-0.2°C 15% 5.6 mph SW9.0 kmh SW 10.8 mph17.4 kmh 29.98 in1015.2 mb 0.00 in0.0 mm 0.00 in/hr0.0 mm/hr 0.00 in0.0 mm
04:02 PM 84.9°F29.4°C 31.3°F-0.4°C 14% 4.4 mph W7.1 kmh W 14.9 mph24.0 kmh 29.98 in1015.2 mb 0.00 in0.0 mm 0.00 in/hr0.0 mm/hr 0.00 in0.0 mm
04:32 PM 84.8°F29.3°C 29.3°F-1.5°C 13% 10.7 mph S17.2 kmh S 14.1 mph22.7 kmh 29.97 in1014.9 mb 0.00 in0.0 mm 0.00 in/hr0.0 mm/hr 0.00 in0.0 mm
05:02 PM 84.3°F29.1°C 27.2°F-2.7°C 12% 12.6 mph S20.3 kmh S 15.7 mph25.3 kmh 29.96 in1014.6 mb 0.00 in0.0 mm 0.00 in/hr0.0 mm/hr 0.00 in0.0 mm
05:32 PM 84.4°F29.1°C 21.0°F-6.1°C 10% 3.0 mph SSE4.8 kmh SSE 11.5 mph18.5 kmh 29.97 in1014.9 mb 0.00 in0.0 mm 0.00 in/hr0.0 mm/hr 0.00 in0.0 mm
06:02 PM 83.4°F28.6°C 22.1°F-5.5°C 10% 4.7 mph WSW7.6 kmh WSW 4.7 mph7.6 kmh 29.97 in1014.9 mb 0.00 in0.0 mm 0.00 in/hr0.0 mm/hr 0.00 in0.0 mm
06:32 PM 81.7°F27.6°C 22.4°F-5.3°C 11% 4.3 mph S6.9 kmh S 5.7 mph9.2 kmh 29.98 in1015.2 mb 0.00 in0.0 mm 0.00 in/hr0.0 mm/hr 0.00 in0.0 mm
07:02 PM 79.8°F26.6°C 22.5°F-5.3°C 12% 6.4 mph WSW10.3 kmh WSW 6.4 mph10.3 kmh 29.98 in1015.2 mb 0.00 in0.0 mm 0.00 in/hr0.0 mm/hr 0.00 in0.0 mm
07:32 PM 76.7°F24.8°C 24.0°F-4.4°C 14% Calm Calm 2.9 mph4.7 kmh 29.99 in1015.6 mb 0.00 in0.0 mm 0.00 in/hr0.0 mm/hr 0.00 in0.0 mm
08:02 PM 73.7°F23.2°C 23.9°F-4.5°C 15% Calm Calm 3.2 mph5.1 kmh 30.00 in1015.9 mb 0.00 in0.0 mm 0.00 in/hr0.0 mm/hr 0.00 in0.0 mm
08:32 PM 71.7°F22.1°C 24.3°F-4.3°C 17% Calm Calm -- 30.00 in1015.9 mb 0.00 in0.0 mm 0.00 in/hr0.0 mm/hr 0.00 in0.0 mm
09:02 PM 71.1°F21.7°C 23.8°F-4.6°C 17% Calm Calm -- 30.02 in1016.6 mb 0.00 in0.0 mm 0.00 in/hr0.0 mm/hr 0.00 in0.0 mm
09:34 PM 68.2°F20.1°C 24.7°F-4.1°C 19% Calm Calm -- 30.02 in1016.6 mb 0.00 in0.0 mm 0.00 in/hr0.0 mm/hr 0.00 in0.0 mm
10:02 PM 67.4°F19.7°C 25.2°F-3.8°C 20% Calm Calm -- 30.02 in1016.6 mb 0.00 in0.0 mm 0.00 in/hr0.0 mm/hr 0.00 in0.0 mm
10:31 PM 65.6°F18.7°C 26.0°F-3.3°C 22% Calm Calm -- 30.02 in1016.6 mb 0.00 in0.0 mm 0.00 in/hr0.0 mm/hr 0.00 in0.0 mm
11:02 PM 63.4°F17.4°C 25.9°F-3.4°C 24% Calm Calm -- 30.01 in1016.3 mb 0.00 in0.0 mm 0.00 in/hr0.0 mm/hr 0.00 in0.0 mm
11:31 PM 63.6°F17.6°C 25.7°F-3.5°C 24% Calm Calm -- 30.00 in1015.9 mb 0.00 in0.0 mm 0.00 in/hr0.0 mm/hr 0.00 in0.0 mm